Amarillo, Texas
Current Conditions -  °F | °C
As of 12:53 AM on Friday 28 Nov 2014 (Local Time) from KAMA Reporting Station
Clear Clear  
Wind Chill: 38°   Ceiling: Unl
Heat Index: 45°   Visibility: 10mi
Dew Point: 29°   Wind: 15mph
Humidity: 53%   Direction: 210°SSW
Pressure: 30.14"   Gusts: NA
Location:  35.21°N, 101.83°W
Report Text: KAMA 280653Z AUTO 21013KT 10SM CLR 07/M02 A3014 RMK AO2 SLP191 T00721017
Loading
Personal Weather Stations






























Interactive Weather Map New forecast layout! Learn more

10-Day Weather Forecast

Advertisements
Track Severe Weather on mobile